Time;durP1;ratioP1;P1;durP2;ratioP2;P2;SDS_P1;SDS_P2;PMS_P1;PMS_P2;Temp;Humidity;BMP_temperature;BMP_pressure;BME280_temperature;BME280_humidity;BME280_pressure;Samples;Min_cycle;Max_cycle;Signal;HPM_P1;HPM_P2
2022/11/07 00:01:18;;;;;;;1.90;1.30;;;12.50;90.70;;;12.90;58.16;98579.00;4968386;28;115023;-74
2022/11/07 00:03:45;;;;;;;2.03;1.23;;;12.50;90.80;;;12.89;58.06;98569.84;4966267;28;124256;-75
2022/11/07 00:06:11;;;;;;;1.33;1.10;;;13.20;91.10;;;12.91;58.49;98572.28;4965671;28;123588;-75
2022/11/07 00:08:38;;;;;;;1.53;1.30;;;12.50;90.90;;;12.91;58.59;98572.28;4967724;28;113981;-75
2022/11/07 00:11:06;;;;;;;2.47;1.53;;;12.50;91.10;;;12.92;58.37;98585.00;4996719;28;114047;-74
2022/11/07 00:13:32;;;;;;;1.20;1.10;;;12.50;91.20;;;12.92;58.56;98588.59;4971745;28;122961;-75
2022/11/07 00:16:04;;;;;;;1.73;1.20;;;12.60;91.30;;;12.92;59.02;98590.53;4969362;28;123790;-74
2022/11/07 00:18:31;;;;;;;2.03;1.40;;;12.50;91.40;;;12.90;58.85;98599.22;4968811;28;114039;-75
2022/11/07 00:21:02;;;;;;;3.50;1.80;;;12.50;91.50;;;12.90;59.04;98598.41;4964868;28;114274;-75
2022/11/07 00:23:29;;;;;;;1.50;1.20;;;12.50;91.60;;;12.88;59.33;98598.72;4965960;28;123315;-75
2022/11/07 00:26:04;;;;;;;1.70;1.43;;;12.50;91.70;;;12.88;59.49;98603.47;4964501;28;123758;-75
2022/11/07 00:28:40;;;;;;;3.03;1.67;;;12.50;91.70;;;12.86;59.50;98611.28;4951235;28;113835;-75
2022/11/07 00:31:09;;;;;;;1.43;1.20;;;12.50;91.90;;;12.86;59.94;98609.31;4966615;28;114649;-74
2022/11/07 00:33:35;;;;;;;2.00;1.33;;;12.50;92.00;;;12.86;60.01;98611.28;4964492;28;124478;-74
2022/11/07 00:36:03;;;;;;;1.67;1.10;;;12.50;92.10;;;12.86;60.26;98614.88;4971515;28;124228;-74
2022/11/07 00:38:29;;;;;;;2.27;1.50;;;12.50;92.20;;;12.87;60.23;98621.22;4966031;28;115002;-75
2022/11/07 00:41:04;;;;;;;1.20;1.10;;;12.50;92.20;;;12.88;60.19;98617.31;5000635;28;114807;-74
2022/11/07 00:43:31;;;;;;;1.20;1.00;;;12.60;92.40;;;12.89;60.35;98618.94;4968834;28;124070;-74
2022/11/07 00:46:01;;;;;;;2.40;1.10;;;12.50;92.30;;;12.91;60.33;98616.66;4968908;28;123737;-74
2022/11/07 00:48:29;;;;;;;1.40;1.20;;;12.50;92.40;;;12.92;60.34;98621.88;4957404;28;114418;-74
2022/11/07 00:51:08;;;;;;;3.57;1.37;;;12.70;92.80;;;12.93;60.24;98629.03;4973310;28;113415;-74
2022/11/07 00:53:36;;;;;;;1.67;1.10;;;12.60;92.50;;;12.97;60.67;98638.31;4967616;28;124018;-74
2022/11/07 00:56:10;;;;;;;1.37;1.10;;;12.60;92.50;;;13.00;60.52;98642.38;4971331;28;123885;-74
2022/11/07 00:58:37;;;;;;;1.83;1.00;;;12.60;92.60;;;13.02;60.32;98629.00;4967660;28;114372;-74
2022/11/07 01:01:17;;;;;;;0.97;0.87;;;12.60;92.60;;;13.04;60.22;98626.72;4970448;28;114609;-74
2022/11/07 01:06:31;;;;;;;1.67;1.17;;;12.70;92.70;;;13.06;60.42;98635.53;4972371;28;124400;-74
2022/11/07 01:08:57;;;;;;;2.63;0.97;;;12.70;92.70;;;13.09;60.39;98629.31;4968983;28;114318;-74
2022/11/07 01:11:26;;;;;;;1.73;1.37;;;12.70;92.70;;;13.12;60.32;98623.09;4972177;28;110869;-75
2022/11/07 01:13:58;;;;;;;1.63;1.33;;;12.70;92.70;;;13.14;60.35;98620.81;5004766;28;122844;-74
2022/11/07 01:16:27;;;;;;;1.90;1.20;;;12.70;92.70;;;13.16;60.33;98623.22;4967760;28;123718;-75
2022/11/07 01:18:54;;;;;;;1.90;1.10;;;12.70;92.70;;;13.16;60.20;98624.03;5000869;28;113321;-74
2022/11/07 01:21:21;;;;;;;1.40;1.20;;;12.70;92.80;;;13.16;60.51;98618.47;4961938;28;113987;-73
2022/11/07 01:23:48;;;;;;;1.67;1.20;;;12.80;92.90;;;13.17;60.43;98619.31;4953243;28;124508;-74
2022/11/07 01:26:15;;;;;;;4.47;1.30;;;12.80;92.90;;;13.16;60.68;98623.22;4969175;28;123874;-74
2022/11/07 01:28:41;;;;;;;1.27;1.17;;;12.90;93.00;;;13.15;60.41;98619.63;4969214;28;115038;-74
2022/11/07 01:31:12;;;;;;;1.90;1.43;;;12.70;92.90;;;13.15;60.67;98619.63;4969538;28;114844;-77
2022/11/07 01:33:39;;;;;;;1.87;1.23;;;12.70;93.00;;;13.14;60.64;98629.13;4969731;28;124281;-78
2022/11/07 01:36:13;;;;;;;1.63;1.10;;;12.70;93.00;;;13.12;60.91;98627.81;4974855;28;123825;-76
2022/11/07 01:38:45;;;;;;;1.57;1.40;;;12.70;93.10;;;13.08;60.92;98622.13;4961361;28;114120;-79
2022/11/07 01:41:25;;;;;;;1.47;1.10;;;12.70;93.10;;;13.07;61.05;98626.03;4967279;28;113985;-78
2022/11/07 01:44:07;;;;;;;1.80;1.20;;;12.70;93.10;;;13.04;60.99;98629.50;4963848;28;123669;-76
2022/11/07 01:46:38;;;;;;;1.60;1.23;;;12.70;93.20;;;13.04;61.21;98623.94;4969922;28;123076;-76
2022/11/07 01:49:13;;;;;;;2.90;1.40;;;12.70;93.20;;;13.03;61.10;98625.09;4969934;28;113893;-76
2022/11/07 01:51:45;;;;;;;1.50;1.27;;;12.60;93.20;;;13.01;61.18;98616.28;4967381;28;114045;-77
2022/11/07 01:54:15;;;;;;;1.70;1.43;;;12.70;93.30;;;12.99;61.33;98618.56;4967954;28;123482;-78
2022/11/07 01:56:43;;;;;;;1.50;1.13;;;12.60;93.30;;;13.00;61.50;98625.75;4968450;28;124408;-76
2022/11/07 01:59:16;;;;;;;1.93;1.30;;;12.60;93.40;;;12.99;61.29;98624.13;4967788;28;114288;-75
2022/11/07 02:01:45;;;;;;;2.73;1.20;;;12.60;93.40;;;12.96;61.46;98627.56;4968248;28;114069;-74
2022/11/07 02:04:12;;;;;;;2.03;1.20;;;12.60;93.40;;;12.97;61.59;98634.72;4969493;28;124226;-80
2022/11/07 02:06:47;;;;;;;1.40;1.23;;;12.60;93.50;;;12.96;61.51;98633.13;4969724;28;123672;-74
2022/11/07 02:09:14;;;;;;;1.87;1.10;;;12.60;93.50;;;12.94;61.58;98627.06;4953063;28;114326;-74
2022/11/07 02:11:40;;;;;;;1.37;1.10;;;12.50;93.50;;;12.93;61.62;98625.47;4971320;28;114102;-74
2022/11/07 02:14:07;;;;;;;1.50;1.40;;;12.50;93.50;;;12.93;61.91;98631.81;4971993;28;124201;-75
2022/11/07 02:16:35;;;;;;;2.97;1.50;;;12.50;93.60;;;12.93;61.86;98628.22;4968177;28;123635;-75
2022/11/07 02:19:10;;;;;;;1.93;1.20;;;12.50;93.60;;;12.94;61.89;98632.63;4971854;28;115620;-76
2022/11/07 02:22:13;;;;;;;2.27;1.40;;;12.50;93.60;;;12.94;61.54;98627.88;4999893;28;114024;-75
2022/11/07 02:24:41;;;;;;;1.63;1.53;;;12.60;93.70;;;12.95;61.87;98635.06;4964957;28;124112;-75
2022/11/07 02:27:13;;;;;;;1.90;1.50;;;12.50;93.60;;;12.98;61.59;98631.63;4968949;28;123930;-75
2022/11/07 02:29:44;;;;;;;1.50;1.40;;;12.60;93.70;;;12.98;61.72;98623.31;4966379;28;114743;-75
2022/11/07 02:32:11;;;;;;;1.50;1.20;;;12.60;93.70;;;12.99;61.82;98629.66;4969103;28;114200;-75
2022/11/07 02:34:38;;;;;;;1.30;1.17;;;12.60;93.70;;;13.01;61.54;98630.97;4968116;28;123756;-75
2022/11/07 02:37:17;;;;;;;1.87;1.20;;;12.90;93.80;;;13.02;61.66;98632.59;4968807;28;123643;-75
2022/11/07 02:39:43;;;;;;;1.87;1.43;;;12.60;93.70;;;13.01;61.54;98635.72;4969661;28;114576;-76
2022/11/07 02:42:10;;;;;;;2.40;1.70;;;12.60;93.70;;;12.99;61.68;98622.16;4969156;28;113905;-75
2022/11/07 02:44:36;;;;;;;1.60;1.30;;;12.60;93.70;;;13.00;61.77;98626.56;4966744;28;124052;-74
2022/11/07 02:47:03;;;;;;;2.77;1.43;;;12.60;93.70;;;13.01;61.91;98632.94;4968499;28;122967;-75
2022/11/07 02:49:30;;;;;;;1.20;1.10;;;12.60;93.70;;;13.03;61.73;98625.91;4971676;28;114394;-77
2022/11/07 02:51:56;;;;;;;1.87;1.50;;;12.60;93.70;;;13.05;61.73;98622.78;5003705;28;116897;-76
2022/11/07 02:54:23;;;;;;;2.13;1.23;;;12.60;93.70;;;13.07;61.46;98622.47;4968269;28;123686;-75
2022/11/07 02:56:49;;;;;;;1.60;1.37;;;12.70;93.70;;;13.07;61.63;98619.69;4967910;28;123839;-75
2022/11/07 02:59:16;;;;;;;2.10;1.60;;;12.60;93.70;;;13.07;61.57;98623.28;4968109;28;114386;-75
2022/11/07 03:01:43;;;;;;;1.83;1.10;;;12.60;93.70;;;13.09;61.72;98629.31;4967180;28;113933;-75
2022/11/07 03:04:09;;;;;;;2.13;1.23;;;12.70;93.80;;;13.08;61.64;98619.34;4968067;28;124608;-76
2022/11/07 03:06:36;;;;;;;1.60;1.27;;;12.70;94.10;;;13.09;61.69;98625.72;4967664;28;124383;-76
2022/11/07 03:09:02;;;;;;;3.20;1.50;;;12.70;93.80;;;13.09;61.86;98623.75;4969782;28;117420;-75
2022/11/07 03:11:29;;;;;;;2.20;1.70;;;13.00;93.90;;;13.11;61.71;98621.47;4966622;28;115371;-75
2022/11/07 03:13:55;;;;;;;1.40;1.27;;;12.80;93.80;;;13.12;61.71;98620.31;4967487;28;124373;-78
2022/11/07 03:16:23;;;;;;;1.30;1.20;;;12.70;93.80;;;13.15;61.78;98625.19;4967388;28;123698;-75
2022/11/07 03:18:50;;;;;;;1.50;1.33;;;12.70;93.80;;;13.17;61.54;98622.91;4968290;28;114235;-75
2022/11/07 03:21:16;;;;;;;1.83;1.43;;;12.70;93.80;;;13.18;61.45;98627.28;4968494;28;113939;-75
2022/11/07 03:23:42;;;;;;;1.53;1.37;;;12.70;93.70;;;13.21;61.32;98621.06;4969188;28;123855;-75
2022/11/07 03:26:09;;;;;;;2.90;1.50;;;12.80;93.80;;;13.24;61.30;98614.03;4967516;28;123933;-75
2022/11/07 03:28:35;;;;;;;2.03;1.50;;;12.80;93.80;;;13.25;61.41;98610.94;4981336;28;113443;-75
2022/11/07 03:31:03;;;;;;;1.70;1.30;;;12.80;93.70;;;13.28;61.43;98625.34;4967537;28;114060;-76
2022/11/07 03:33:30;;;;;;;2.00;1.80;;;12.80;93.70;;;13.27;61.39;98624.50;4966314;28;123975;-75
2022/11/07 03:35:57;;;;;;;1.60;1.40;;;12.80;93.70;;;13.28;61.08;98631.69;4967493;28;123787;-75
2022/11/07 03:38:24;;;;;;;1.67;1.30;;;12.80;93.70;;;13.30;61.34;98628.56;4969599;28;114509;-75
2022/11/07 03:40:50;;;;;;;1.87;1.30;;;12.90;93.70;;;13.31;61.26;98636.56;4952230;28;113968;-76
2022/11/07 03:43:21;;;;;;;1.63;1.30;;;12.90;93.70;;;13.33;61.23;98633.47;4966700;28;123925;-75
2022/11/07 03:45:47;;;;;;;1.40;1.30;;;12.90;93.60;;;13.34;61.24;98643.41;4960460;28;124565;-75
2022/11/07 03:48:13;;;;;;;2.13;1.43;;;12.90;93.60;;;13.35;61.03;98626.44;4967389;28;114204;-76
2022/11/07 03:50:40;;;;;;;1.93;1.70;;;12.90;93.60;;;13.38;61.07;98633.25;4966744;28;113971;-76
2022/11/07 03:53:06;;;;;;;3.40;1.43;;;12.90;93.60;;;13.40;61.11;98640.09;4966069;28;123770;-75
2022/11/07 03:55:33;;;;;;;2.50;1.47;;;13.00;93.60;;;13.42;60.96;98623.94;4965928;28;123302;-76
2022/11/07 03:57:59;;;;;;;1.60;1.27;;;13.00;93.60;;;13.44;60.84;98635.50;4966382;28;115392;-75
2022/11/07 04:00:26;;;;;;;1.60;1.37;;;13.00;93.60;;;13.47;60.72;98631.25;4966419;28;115000;-75
2022/11/07 04:02:52;;;;;;;2.13;1.53;;;13.00;93.50;;;13.48;60.99;98635.66;4968453;28;124599;-75
2022/11/07 04:05:19;;;;;;;2.00;1.53;;;13.00;93.50;;;13.51;60.77;98645.25;4998369;28;123612;-75
2022/11/07 04:07:45;;;;;;;1.97;1.30;;;13.10;93.50;;;13.51;60.52;98648.84;4966106;28;114346;-75
2022/11/07 04:10:15;;;;;;;1.83;1.10;;;13.10;93.50;;;13.52;60.71;98639.38;4969171;28;114091;-75
2022/11/07 04:18:15;;;;;;;2.10;1.60;;;13.10;93.40;;;13.53;60.52;98654.06;4961200;28;114670;-76
2022/11/07 04:20:42;;;;;;;2.37;1.20;;;13.10;93.40;;;13.54;60.37;98656.53;4969628;28;113749;-75
2022/11/07 04:23:08;;;;;;;1.20;1.10;;;13.10;93.40;;;13.56;60.46;98654.22;4969943;28;124189;-76
2022/11/07 04:28:21;;;;;;;3.00;1.10;;;13.10;93.30;;;13.58;60.18;98674.13;4972648;28;114700;-76
2022/11/07 04:30:47;;;;;;;3.10;1.33;;;13.10;93.30;;;13.59;60.27;98664.63;4969429;28;114077;-76
2022/11/07 04:33:14;;;;;;;2.00;1.47;;;13.20;93.30;;;13.61;60.27;98662.34;4969549;28;124021;-76
2022/11/07 04:35:40;;;;;;;2.70;1.30;;;13.20;93.30;;;13.64;60.38;98663.63;4970110;28;123897;-76
2022/11/07 04:38:07;;;;;;;1.97;1.57;;;13.20;93.30;;;13.65;60.16;98652.22;4973294;28;115034;-76
2022/11/07 04:40:33;;;;;;;1.50;1.13;;;13.20;93.30;;;13.67;60.06;98669.34;4972762;28;114918;-77
2022/11/07 04:43:02;;;;;;;5.73;1.33;;;13.20;93.20;;;13.68;60.00;98670.97;4996765;28;124482;-76
2022/11/07 04:45:28;;;;;;;1.93;1.20;;;13.20;93.20;;;13.69;59.97;98672.59;4967164;28;124651;-77
2022/11/07 04:47:55;;;;;;;2.60;1.10;;;13.20;93.20;;;13.71;59.82;98669.47;4985762;28;114299;-76
2022/11/07 04:50:21;;;;;;;4.70;1.20;;;13.30;93.20;;;13.74;59.93;98676.31;4967909;28;114860;-77
2022/11/07 04:52:48;;;;;;;3.07;1.40;;;13.30;93.20;;;13.74;59.88;98673.56;4967010;28;124160;-77
2022/11/07 04:55:26;;;;;;;2.83;1.50;;;13.30;93.20;;;13.76;59.37;98682.38;4964668;28;123787;-76
2022/11/07 04:57:52;;;;;;;2.10;1.50;;;13.30;93.10;;;13.75;59.79;98677.94;4964833;28;114365;-75
2022/11/07 05:00:19;;;;;;;2.73;1.23;;;13.30;93.10;;;13.73;59.82;98678.28;4983751;28;112591;-74
2022/11/07 05:02:47;;;;;;;3.17;1.43;;;13.30;93.10;;;13.74;59.56;98687.44;4964509;28;123712;-76
2022/11/07 05:05:13;;;;;;;2.03;1.23;;;13.30;93.00;;;13.74;59.77;98679.09;4969755;28;124033;-75
2022/11/07 05:07:40;;;;;;;1.20;1.00;;;13.30;93.00;;;13.76;59.65;98687.91;5001001;28;114033;-75
2022/11/07 05:10:16;;;;;;;1.60;1.30;;;13.30;93.00;;;13.76;59.67;98683.19;4971065;28;113012;-77
2022/11/07 05:12:42;;;;;;;1.43;1.07;;;12.50;92.60;;;13.76;59.59;98672.06;4966292;28;123814;-75
2022/11/07 05:15:09;;;;;;;1.83;1.10;;;13.40;93.00;;;13.78;59.50;98677.28;4962625;28;123588;-75
2022/11/07 05:17:35;;;;;;;2.40;1.33;;;13.30;93.00;;;13.77;59.45;98679.22;4968462;28;114377;-74
2022/11/07 05:20:02;;;;;;;1.53;1.20;;;13.50;93.10;;;13.77;59.30;98689.53;4971004;28;113281;-73
2022/11/07 05:25:14;;;;;;;1.80;1.40;;;13.30;92.90;;;13.75;59.48;98680.72;4966139;28;124406;-74
2022/11/07 05:27:40;;;;;;;1.60;1.40;;;13.30;92.90;;;13.74;59.57;98679.91;4962272;28;114683;-74
2022/11/07 05:30:09;;;;;;;1.83;1.10;;;13.30;92.90;;;13.74;59.53;98690.22;4969248;28;114655;-75
2022/11/07 05:32:37;;;;;;;1.97;1.20;;;13.20;92.90;;;13.74;59.53;98681.88;4970714;28;122993;-74
2022/11/07 05:35:04;;;;;;;3.07;1.20;;;13.30;92.90;;;13.74;59.47;98681.88;4966436;28;126243;-76
2022/11/07 05:37:31;;;;;;;1.40;1.23;;;13.30;92.90;;;13.73;59.43;98686.63;4967199;28;115879;-75
2022/11/07 05:39:57;;;;;;;2.80;1.43;;;13.30;92.90;;;13.72;59.38;98689.72;4970291;28;114752;-75
2022/11/07 05:42:24;;;;;;;2.53;1.53;;;13.30;92.90;;;13.72;59.57;98690.53;5001246;28;124399;-75
2022/11/07 05:44:50;;;;;;;2.40;1.37;;;13.30;92.90;;;13.74;59.62;98698.53;5002394;28;123450;-76
2022/11/07 05:47:17;;;;;;;2.93;1.60;;;13.50;93.00;;;13.72;59.43;98700.84;4970376;28;114623;-76
2022/11/07 05:49:43;;;;;;;1.60;1.10;;;13.30;92.90;;;13.71;59.48;98700.03;4970148;28;114025;-76
2022/11/07 05:52:10;;;;;;;2.00;1.40;;;13.30;92.90;;;13.70;59.44;98699.22;4971341;28;123849;-76
2022/11/07 05:54:36;;;;;;;2.20;1.33;;;13.30;92.90;;;13.69;59.41;98692.03;4973674;28;123506;-76
2022/11/07 05:57:03;;;;;;;2.70;1.50;;;13.20;92.80;;;13.67;59.46;98694.34;4969977;28;114205;-73
2022/11/07 05:59:29;;;;;;;6.20;1.63;;;13.20;92.90;;;13.66;59.54;98703.81;4968857;28;114477;-77
2022/11/07 06:01:56;;;;;;;2.30;1.47;;;13.20;92.90;;;13.65;59.56;98695.81;4969230;28;123993;-75
2022/11/07 06:04:22;;;;;;;6.77;1.80;;;13.20;92.90;;;13.64;59.58;98700.53;4968527;28;123849;-75
2022/11/07 06:06:49;;;;;;;2.17;1.63;;;13.20;92.90;;;13.62;59.71;98713.97;4971832;28;114242;-75
2022/11/07 06:09:15;;;;;;;2.67;1.43;;;13.20;92.90;;;13.59;59.76;98703.50;4961071;28;113977;-75
2022/11/07 06:11:42;;;;;;;2.97;1.40;;;13.20;92.90;;;13.55;59.75;98694.22;4961637;28;124090;-75
2022/11/07 06:14:08;;;;;;;3.97;1.83;;;13.10;92.90;;;13.54;59.97;98700.94;4979833;28;123854;-75
2022/11/07 06:16:35;;;;;;;3.13;1.63;;;13.10;93.20;;;13.51;60.06;98695.22;4969086;28;114470;-77
2022/11/07 06:19:01;;;;;;;2.90;1.80;;;13.40;93.10;;;13.50;60.05;98688.88;4969722;28;114719;-76
2022/11/07 06:21:29;;;;;;;2.57;1.70;;;13.10;93.00;;;13.47;60.10;98690.34;4968352;28;123368;-76
2022/11/07 06:23:57;;;;;;;4.47;2.00;;;13.10;93.10;;;13.46;60.56;98693.47;4967130;28;123914;-76
2022/11/07 06:26:25;;;;;;;1.70;1.50;;;13.10;93.20;;;13.46;60.58;98693.47;4966938;28;115226;-76
2022/11/07 06:28:52;;;;;;;2.83;1.60;;;13.10;93.30;;;13.45;60.66;98697.38;4970385;28;115187;-75
2022/11/07 06:31:19;;;;;;;5.27;1.90;;;13.10;93.30;;;13.43;61.12;98697.72;4967581;28;123989;-76
2022/11/07 06:33:50;;;;;;;4.23;2.00;;;13.10;93.40;;;13.41;60.84;98705.56;4968750;28;124333;-76
2022/11/07 06:36:16;;;;;;;2.97;1.80;;;13.00;93.40;;;13.40;60.99;98701.16;4969262;28;114340;-77
2022/11/07 06:38:43;;;;;;;6.00;2.33;;;13.00;93.50;;;13.41;61.22;98694.47;4968163;28;115022;-76
2022/11/07 06:41:13;;;;;;;3.93;1.97;;;13.00;93.50;;;13.40;61.18;98700.34;4968469;28;123924;-76
2022/11/07 06:43:39;;;;;;;1.80;1.60;;;13.00;93.60;;;13.41;61.36;98697.25;4967569;28;123836;-76
2022/11/07 06:46:09;;;;;;;4.17;1.60;;;13.00;93.70;;;13.43;61.31;98699.66;4968958;28;114391;-77
2022/11/07 06:48:36;;;;;;;3.70;1.70;;;13.00;93.80;;;13.44;61.47;98701.31;4968622;28;114057;-78
2022/11/07 06:51:05;;;;;;;2.93;1.80;;;13.00;93.80;;;13.48;61.46;98699.47;4969845;28;123325;-76
2022/11/07 06:53:32;;;;;;;5.57;1.60;;;13.00;93.80;;;13.54;61.57;98705.66;4967620;28;124009;-77
2022/11/07 06:56:00;;;;;;;3.17;1.70;;;13.10;93.90;;;13.58;61.53;98709.41;4968348;28;114915;-75
2022/11/07 06:58:27;;;;;;;2.93;1.67;;;13.10;93.90;;;13.62;61.23;98708.41;4968020;28;114107;-76
2022/11/07 07:00:57;;;;;;;4.20;1.47;;;13.10;93.90;;;13.67;61.18;98715.72;4971148;28;124066;-75
2022/11/07 07:03:24;;;;;;;2.53;1.77;;;13.20;93.90;;;13.70;61.33;98724.22;4958088;28;123854;-79
2022/11/07 07:05:50;;;;;;;10.03;1.77;;;13.20;93.90;;;13.75;61.18;98727.94;4968263;28;114458;-75
2022/11/07 07:08:17;;;;;;;2.70;1.83;;;13.20;93.90;;;13.77;61.18;98722.84;4970956;28;113824;-75
2022/11/07 07:10:44;;;;;;;2.00;1.60;;;13.20;93.90;;;13.80;61.16;98733.28;4966391;28;124009;-76
2022/11/07 07:13:12;;;;;;;4.17;1.70;;;13.30;93.90;;;13.84;61.04;98734.25;4966398;28;125034;-75
2022/11/07 07:15:39;;;;;;;5.90;1.90;;;13.30;93.90;;;13.85;61.04;98733.09;4966323;28;115626;-78
2022/11/07 07:18:06;;;;;;;4.10;1.70;;;13.40;93.90;;;13.89;61.03;98734.06;4968239;28;115032;-76
2022/11/07 07:20:32;;;;;;;3.37;1.80;;;13.40;93.90;;;13.92;60.88;98738.94;4970267;28;124059;-77
2022/11/07 07:23:00;;;;;;;4.20;1.77;;;13.40;93.90;;;13.92;60.86;98748.09;4967149;28;123800;-76
2022/11/07 07:25:27;;;;;;;3.70;1.73;;;13.40;93.90;;;13.93;60.90;98741.38;4967338;28;114750;-78
2022/11/07 07:27:53;;;;;;;2.33;1.30;;;13.50;93.90;;;13.97;61.01;98751.81;4967421;28;113752;-75
2022/11/07 07:30:20;;;;;;;2.60;1.30;;;13.50;93.90;;;13.97;60.95;98755.41;4963005;28;123998;-77
2022/11/07 07:32:46;;;;;;;2.77;1.63;;;13.50;93.80;;;13.98;60.86;98748.69;4950190;28;123719;-76
2022/11/07 07:35:13;;;;;;;3.43;1.70;;;13.50;93.80;;;13.99;61.19;98744.75;4967673;28;114809;-75
2022/11/07 07:37:39;;;;;;;2.60;1.73;;;13.50;93.80;;;14.01;60.83;98748.03;4962630;28;114069;-77
2022/11/07 07:40:07;;;;;;;4.70;1.70;;;13.60;93.90;;;14.04;60.92;98752.09;4969235;28;123986;-74
2022/11/07 07:42:41;;;;;;;5.13;1.70;;;13.50;93.80;;;14.08;60.75;98756.66;4962764;28;123863;-77
2022/11/07 07:45:10;;;;;;;5.40;2.13;;;13.60;93.80;;;14.10;60.63;98751.59;4967186;28;113982;-79
2022/11/07 07:47:37;;;;;;;4.70;1.83;;;13.60;93.80;;;14.13;60.77;98750.91;4951706;28;114002;-77
2022/11/07 07:50:07;;;;;;;3.90;2.00;;;13.60;93.70;;;14.16;60.59;98752.19;4966208;28;123992;-75
2022/11/07 07:52:33;;;;;;;3.10;1.80;;;13.70;93.80;;;14.20;60.55;98755.91;4965354;28;124293;-77
2022/11/07 07:55:00;;;;;;;2.60;1.80;;;13.70;93.80;;;14.24;60.45;98756.88;4962690;28;114699;-79
2022/11/07 07:57:27;;;;;;;2.87;1.40;;;13.70;93.70;;;14.29;60.43;98750.28;4963118;28;113906;-77
2022/11/07 07:59:53;;;;;;;2.80;1.97;;;13.80;93.70;;;14.33;60.41;98754.84;4966493;28;124319;-75
2022/11/07 08:02:20;;;;;;;3.40;1.87;;;13.80;93.70;;;14.37;60.15;98749.41;4968726;28;124123;-76
2022/11/07 08:04:46;;;;;;;4.97;2.10;;;13.90;93.70;;;14.42;60.16;98746.41;4966176;28;115346;-77
2022/11/07 08:07:13;;;;;;;4.07;1.70;;;14.00;93.70;;;14.49;60.05;98748.66;4964486;28;114843;-76
2022/11/07 08:09:40;;;;;;;3.77;1.90;;;13.90;93.60;;;14.55;60.00;98750.91;4966830;28;124092;-77
2022/11/07 08:12:09;;;;;;;4.17;1.70;;;14.00;93.60;;;14.61;59.38;98753.50;4985561;28;123327;-75
2022/11/07 08:14:36;;;;;;;3.60;1.90;;;14.00;93.50;;;14.64;59.75;98747.25;4967100;28;114396;-75
2022/11/07 08:17:02;;;;;;;2.37;1.60;;;14.10;93.50;;;14.66;59.54;98754.09;4969081;28;114190;-76
2022/11/07 08:19:29;;;;;;;2.80;1.57;;;14.10;93.50;;;14.69;59.54;98760.94;4965462;28;124021;-76
2022/11/07 08:21:56;;;;;;;4.40;1.60;;;14.10;93.40;;;14.70;59.35;98759.81;4966955;28;124195;-74
2022/11/07 08:24:22;;;;;;;4.60;1.93;;;14.10;93.40;;;14.72;59.33;98766.66;4967573;28;114433;-74
2022/11/07 08:26:49;;;;;;;8.83;2.10;;;14.20;93.40;;;14.72;59.28;98754.69;4967920;28;115943;-76
2022/11/07 08:29:15;;;;;;;3.60;1.63;;;14.20;93.30;;;14.70;59.16;98757.03;4965222;28;124113;-78
2022/11/07 08:31:42;;;;;;;3.43;1.50;;;14.20;93.20;;;14.70;59.41;98757.03;4985183;28;122774;-81
2022/11/07 08:34:08;;;;;;;4.50;1.83;;;14.20;93.20;;;14.72;59.05;98763.03;4966115;28;113363;-77
2022/11/07 08:36:35;;;;;;;3.97;1.90;;;14.20;93.20;;;14.70;58.91;98762.59;4967309;28;114343;-77
2022/11/07 08:39:01;;;;;;;8.40;2.40;;;14.20;93.40;;;14.72;59.02;98760.25;4969164;28;123697;-80
2022/11/07 08:41:28;;;;;;;4.10;2.03;;;14.20;93.00;;;14.74;58.86;98757.97;4960114;28;123747;-80
2022/11/07 08:43:54;;;;;;;4.83;1.87;;;14.20;93.00;;;14.75;58.78;98754.03;4974207;28;113337;-78
2022/11/07 08:46:20;;;;;;;2.40;1.70;;;14.30;93.00;;;14.77;58.38;98754.50;4967370;28;113906;-76
2022/11/07 08:48:47;;;;;;;3.43;1.70;;;14.30;92.90;;;14.77;58.51;98751.72;4971893;28;123553;-76
2022/11/07 08:51:14;;;;;;;2.80;1.47;;;14.30;92.80;;;14.80;58.49;98756.59;4970035;28;123484;-78
2022/11/07 08:53:40;;;;;;;6.73;2.10;;;14.30;92.80;;;14.85;58.39;98761.13;4966407;28;115306;-76
2022/11/07 08:56:08;;;;;;;5.03;1.67;;;14.30;92.80;;;14.88;58.38;98755.69;4964760;28;114848;-80
2022/11/07 08:58:36;;;;;;;5.20;1.70;;;14.40;92.80;;;14.92;58.36;98759.44;4964225;28;124544;-77
2022/11/07 09:01:06;;;;;;;3.50;1.87;;;14.40;92.70;;;14.96;58.01;98754.81;4967467;28;124061;-76
2022/11/07 09:03:38;;;;;;;5.90;2.30;;;14.40;92.60;;;15.00;57.90;98754.94;4969035;28;114077;-74
2022/11/07 09:06:05;;;;;;;4.00;1.80;;;14.50;92.60;;;15.05;57.73;98748.34;4970740;28;114010;-75
2022/11/07 09:08:32;;;;;;;6.73;1.70;;;14.50;92.50;;;15.08;57.66;98745.69;4972743;28;124536;-75
2022/11/07 09:11:03;;;;;;;4.10;1.63;;;14.50;92.40;;;15.13;57.55;98759.38;4971761;28;123056;-75
2022/11/07 09:13:32;;;;;;;8.57;2.00;;;14.60;92.70;;;15.19;57.44;98751.63;4969536;28;114195;-75
2022/11/07 09:16:03;;;;;;;5.40;2.10;;;14.70;92.40;;;15.25;57.40;98766.94;4970796;28;114034;-74
2022/11/07 09:18:31;;;;;;;7.03;1.80;;;14.70;92.40;;;15.28;57.12;98759.88;4972590;28;123555;-76
2022/11/07 09:20:59;;;;;;;4.97;1.67;;;14.70;92.30;;;15.30;57.16;98763.94;4968937;28;124514;-75
2022/11/07 09:23:26;;;;;;;5.13;1.67;;;14.80;92.20;;;15.34;56.90;98769.63;4968764;28;114367;-75
2022/11/07 09:25:52;;;;;;;7.33;1.97;;;14.80;92.20;;;15.37;56.96;98774.53;4970048;28;113974;-75
2022/11/07 09:28:19;;;;;;;2.53;1.50;;;14.80;92.20;;;15.39;57.13;98773.03;4967697;28;124122;-75
2022/11/07 09:30:45;;;;;;;4.27;1.70;;;14.90;92.20;;;15.43;56.75;98771.16;4959801;28;124208;-75
2022/11/07 09:33:12;;;;;;;4.90;2.10;;;14.90;92.10;;;15.50;56.96;98772.56;4968574;28;114372;-76
2022/11/07 09:35:38;;;;;;;4.67;2.00;;;14.90;92.10;;;15.52;56.68;98773.03;4968594;28;114107;-75
2022/11/07 09:38:05;;;;;;;3.10;1.83;;;15.00;92.10;;;15.55;56.77;98780.69;4968707;28;124343;-75
2022/11/07 09:40:54;;;;;;;4.73;1.70;;;15.00;92.00;;;15.58;56.64;98780.81;4962927;28;123489;-75
2022/11/07 09:43:57;;;;;;;3.93;1.73;;;15.10;92.00;;;15.60;56.44;98777.69;4950262;28;114686;-75
2022/11/07 09:46:59;;;;;;;3.83;1.40;;;15.10;92.00;;;15.62;56.61;98781.75;4980660;28;114279;-79
2022/11/07 09:49:37;;;;;;;3.17;1.70;;;15.20;91.90;;;15.67;56.11;98783.50;4933606;28;124193;-77
2022/11/07 09:52:37;;;;;;;3.97;1.57;;;15.10;91.80;;;15.71;56.96;98783.63;4964407;28;123954;-75
2022/11/07 09:55:25;;;;;;;3.73;1.77;;;15.20;92.00;;;15.77;56.30;98787.81;4983295;28;114519;-77
2022/11/07 09:58:03;;;;;;;7.03;1.87;;;15.20;91.90;;;15.78;56.05;98784.69;4980595;28;113345;-75
2022/11/07 10:00:31;;;;;;;5.37;1.80;;;15.30;91.80;;;15.80;56.00;98776.81;4982103;28;124222;-75
2022/11/07 10:03:00;;;;;;;8.10;1.70;;;15.30;91.70;;;15.84;55.78;98783.28;4959002;28;123798;-76
2022/11/07 10:05:59;;;;;;;5.33;1.90;;;15.30;91.70;;;15.86;56.11;98780.97;4957906;28;114962;-75
2022/11/07 10:09:07;;;;;;;6.07;1.90;;;15.40;91.70;;;15.89;56.32;98782.25;4955352;28;113950;-76
2022/11/07 10:12:09;;;;;;;5.00;1.93;;;15.40;91.90;;;15.94;55.94;98781.22;4954229;28;123990;-75
2022/11/07 10:14:51;;;;;;;4.87;1.80;;;15.40;91.70;;;15.97;55.67;98786.91;4951516;28;124472;-75
2022/11/07 10:17:57;;;;;;;3.37;1.53;;;15.40;91.80;;;15.97;55.53;98786.91;4956723;28;114446;-75
2022/11/07 10:20:45;;;;;;;4.80;2.00;;;15.50;91.50;;;16.00;55.41;98783.41;4965219;28;114036;-78
2022/11/07 10:23:49;;;;;;;4.03;1.60;;;15.50;91.40;;;16.01;55.15;98787.84;4965776;28;123878;-76
2022/11/07 10:26:23;;;;;;;3.87;1.97;;;15.50;91.30;;;16.06;55.12;98779.22;4968076;28;123998;-75
2022/11/07 10:29:17;;;;;;;4.40;2.03;;;15.50;91.30;;;16.07;55.25;98780.88;4961941;28;113562;-75
2022/11/07 10:31:54;;;;;;;4.03;1.67;;;15.50;91.20;;;16.10;54.60;98782.13;4953482;28;113333;-75
2022/11/07 10:34:32;;;;;;;3.50;1.50;;;15.60;91.00;;;16.12;54.63;98774.25;4967415;28;123074;-75
2022/11/07 10:36:58;;;;;;;7.23;1.90;;;15.60;91.00;;;16.15;54.61;98773.53;4962570;28;124456;-74